LAN123 SCEL-SCSE
Flight info
| Callsign | LAN123 |
|---|---|
| Flight time | 0h 58m |
| Altitude | 34000 |
| Route | DONTI5B DONTI DCT ESNOX DCT DANLA DANLA1C |
| Aircraft | A320/M-SDE3FGHIRWY/LB1 |
Departure
| Time | 2026-04-21 14:03 |
|---|---|
| Airport | Comodoro Arturo Merino Benítez International Airport (SCEL) |
Arrival
| Time | 2026-04-21 15:01 |
|---|---|
| Airport | La Florida Airport (SCSE) |
| Time | Latitude | Longitude | Altitude | Speed | Heading |
|---|---|---|---|---|---|
| 2026-04-21 13:45 | -33.39595 | -70.79294 | 1564 ft | 0 kts | 175° |
| 2026-04-21 13:52 | -33.39586 | -70.79295 | 1564 ft | 2 kts | 175° |
| 2026-04-21 13:52 | -33.39569 | -70.79296 | 1564 ft | 2 kts | 175° |
| 2026-04-21 13:52 | -33.39552 | -70.79298 | 1564 ft | 2 kts | 175° |
| 2026-04-21 13:53 | -33.39535 | -70.79300 | 1564 ft | 3 kts | 158° |
| 2026-04-21 13:53 | -33.39519 | -70.79311 | 1564 ft | 3 kts | 121° |
| 2026-04-21 13:53 | -33.39513 | -70.79329 | 1564 ft | 0 kts | 88° |
| 2026-04-21 13:55 | -33.39513 | -70.79327 | 1564 ft | 2 kts | 87° |
| 2026-04-21 13:56 | -33.39510 | -70.79286 | 1568 ft | 10 kts | 85° |
| 2026-04-21 13:56 | -33.39504 | -70.79201 | 1579 ft | 9 kts | 85° |
| 2026-04-21 13:56 | -33.39499 | -70.79129 | 1581 ft | 8 kts | 85° |
| 2026-04-21 13:56 | -33.39495 | -70.79031 | 1582 ft | 15 kts | 88° |
| 2026-04-21 13:57 | -33.39482 | -70.78908 | 1581 ft | 15 kts | 62° |
| 2026-04-21 13:57 | -33.39393 | -70.78831 | 1583 ft | 17 kts | 29° |
| 2026-04-21 13:57 | -33.39277 | -70.78796 | 1583 ft | 18 kts | 356° |
| 2026-04-21 13:57 | -33.39145 | -70.78804 | 1582 ft | 20 kts | 356° |
| 2026-04-21 13:58 | -33.39002 | -70.78812 | 1582 ft | 21 kts | 358° |
| 2026-04-21 13:58 | -33.38848 | -70.78820 | 1582 ft | 23 kts | 357° |
| 2026-04-21 13:58 | -33.38741 | -70.78826 | 1582 ft | 24 kts | 357° |
| 2026-04-21 13:58 | -33.38571 | -70.78834 | 1584 ft | 25 kts | 358° |
| 2026-04-21 13:59 | -33.38393 | -70.78844 | 1584 ft | 26 kts | 357° |
| 2026-04-21 13:59 | -33.38209 | -70.78853 | 1583 ft | 27 kts | 358° |
| 2026-04-21 13:59 | -33.38018 | -70.78864 | 1584 ft | 28 kts | 357° |
| 2026-04-21 13:59 | -33.37822 | -70.78874 | 1584 ft | 29 kts | 358° |
| 2026-04-21 14:00 | -33.37652 | -70.78873 | 1580 ft | 11 kts | 26° |
| 2026-04-21 14:00 | -33.37626 | -70.78828 | 1580 ft | 8 kts | 76° |
| 2026-04-21 14:00 | -33.37624 | -70.78792 | 1581 ft | 0 kts | 87° |
| 2026-04-21 14:01 | -33.37624 | -70.78791 | 1577 ft | 1 kts | 87° |
| 2026-04-21 14:01 | -33.37623 | -70.78746 | 1564 ft | 7 kts | 88° |
| 2026-04-21 14:01 | -33.37629 | -70.78700 | 1564 ft | 5 kts | 116° |
| 2026-04-21 14:01 | -33.37652 | -70.78675 | 1565 ft | 5 kts | 151° |
| 2026-04-21 14:02 | -33.37676 | -70.78669 | 1565 ft | 0 kts | 175° |
| 2026-04-21 14:02 | -33.37876 | -70.78659 | 1564 ft | 67 kts | 177° |
| 2026-04-21 14:03 | -33.39635 | -70.78559 | 1644 ft | 170 kts | 178° |
| 2026-04-21 14:03 | -33.40742 | -70.78494 | 2496 ft | 157 kts | 177° |
| 2026-04-21 14:03 | -33.41855 | -70.78428 | 3059 ft | 168 kts | 177° |
| 2026-04-21 14:03 | -33.43103 | -70.78355 | 3406 ft | 190 kts | 177° |
| 2026-04-21 14:04 | -33.44510 | -70.78274 | 3714 ft | 215 kts | 177° |
| 2026-04-21 14:04 | -33.46091 | -70.78210 | 4122 ft | 239 kts | 183° |
| 2026-04-21 14:04 | -33.47705 | -70.78920 | 4540 ft | 263 kts | 220° |
| 2026-04-21 14:04 | -33.48716 | -70.80770 | 5236 ft | 273 kts | 257° |
| 2026-04-21 14:05 | -33.48808 | -70.83007 | 6133 ft | 274 kts | 278° |
| 2026-04-21 14:05 | -33.48497 | -70.85256 | 7111 ft | 273 kts | 285° |
| 2026-04-21 14:05 | -33.48119 | -70.87484 | 8043 ft | 274 kts | 284° |
| 2026-04-21 14:05 | -33.47794 | -70.89749 | 8739 ft | 278 kts | 282° |
| 2026-04-21 14:06 | -33.47555 | -70.92045 | 8951 ft | 278 kts | 280° |
| 2026-04-21 14:06 | -33.47397 | -70.94348 | 8998 ft | 277 kts | 278° |
| 2026-04-21 14:06 | -33.47063 | -70.96584 | 9009 ft | 271 kts | 295° |
| 2026-04-21 14:06 | -33.46060 | -70.98447 | 9033 ft | 267 kts | 318° |
| 2026-04-21 14:07 | -33.44483 | -70.99626 | 9755 ft | 269 kts | 339° |
| 2026-04-21 14:07 | -33.42696 | -71.00354 | 10485 ft | 280 kts | 341° |
| 2026-04-21 14:07 | -33.40771 | -71.01120 | 10779 ft | 303 kts | 341° |
| 2026-04-21 14:07 | -33.38718 | -71.01932 | 11226 ft | 317 kts | 341° |
| 2026-04-21 14:08 | -33.36603 | -71.02766 | 11949 ft | 323 kts | 341° |
| 2026-04-21 14:08 | -33.34457 | -71.03610 | 12667 ft | 326 kts | 341° |
| 2026-04-21 14:08 | -33.32281 | -71.04464 | 13377 ft | 332 kts | 340° |
| 2026-04-21 14:08 | -33.30073 | -71.05329 | 14077 ft | 337 kts | 340° |
| 2026-04-21 14:09 | -33.27831 | -71.06206 | 14735 ft | 341 kts | 340° |
| 2026-04-21 14:09 | -33.25564 | -71.07090 | 15391 ft | 345 kts | 340° |
| 2026-04-21 14:09 | -33.23269 | -71.07983 | 16050 ft | 348 kts | 339° |
| 2026-04-21 14:09 | -33.20954 | -71.08886 | 16702 ft | 352 kts | 339° |
| 2026-04-21 14:10 | -33.18613 | -71.09797 | 17348 ft | 356 kts | 339° |
| 2026-04-21 14:10 | -33.16237 | -71.10724 | 18001 ft | 360 kts | 338° |
| 2026-04-21 14:10 | -33.13845 | -71.11657 | 18584 ft | 363 kts | 338° |
| 2026-04-21 14:10 | -33.11443 | -71.12597 | 19100 ft | 365 kts | 338° |
| 2026-04-21 14:11 | -33.09017 | -71.13548 | 19624 ft | 368 kts | 338° |
| 2026-04-21 14:11 | -33.06572 | -71.14503 | 20126 ft | 371 kts | 338° |
| 2026-04-21 14:11 | -33.04107 | -71.15465 | 20617 ft | 375 kts | 338° |
| 2026-04-21 14:11 | -33.01617 | -71.16436 | 21144 ft | 378 kts | 338° |
| 2026-04-21 14:12 | -32.99106 | -71.17414 | 21676 ft | 381 kts | 338° |
| 2026-04-21 14:12 | -32.96572 | -71.18396 | 22203 ft | 384 kts | 338° |
| 2026-04-21 14:12 | -32.93984 | -71.19258 | 22709 ft | 391 kts | 343° |
| 2026-04-21 14:12 | -32.91305 | -71.19908 | 23203 ft | 394 kts | 343° |
| 2026-04-21 14:13 | -32.88611 | -71.20561 | 23691 ft | 397 kts | 343° |
| 2026-04-21 14:13 | -32.85889 | -71.21223 | 24113 ft | 400 kts | 343° |
| 2026-04-21 14:13 | -32.83157 | -71.21890 | 24529 ft | 402 kts | 343° |
| 2026-04-21 14:13 | -32.80407 | -71.22562 | 24959 ft | 404 kts | 343° |
| 2026-04-21 14:14 | -32.77680 | -71.23227 | 25379 ft | 406 kts | 343° |
| 2026-04-21 14:14 | -32.74904 | -71.23903 | 25798 ft | 407 kts | 342° |
| 2026-04-21 14:14 | -32.72125 | -71.24581 | 26210 ft | 409 kts | 342° |
| 2026-04-21 14:14 | -32.69326 | -71.25266 | 26610 ft | 410 kts | 342° |
| 2026-04-21 14:15 | -32.66524 | -71.25950 | 26996 ft | 412 kts | 342° |
| 2026-04-21 14:15 | -32.63707 | -71.26634 | 27394 ft | 414 kts | 342° |
| 2026-04-21 14:15 | -32.60879 | -71.27320 | 27799 ft | 416 kts | 342° |
| 2026-04-21 14:15 | -32.58034 | -71.28009 | 28212 ft | 418 kts | 341° |
| 2026-04-21 14:16 | -32.55184 | -71.28700 | 28612 ft | 419 kts | 341° |
| 2026-04-21 14:16 | -32.52314 | -71.29397 | 28995 ft | 421 kts | 341° |
| 2026-04-21 14:16 | -32.49445 | -71.30097 | 29351 ft | 422 kts | 341° |
| 2026-04-21 14:16 | -32.46555 | -71.30799 | 29716 ft | 424 kts | 341° |
| 2026-04-21 14:17 | -32.43659 | -71.31500 | 30053 ft | 426 kts | 341° |
| 2026-04-21 14:17 | -32.40741 | -71.32208 | 30367 ft | 428 kts | 341° |
| 2026-04-21 14:17 | -32.37816 | -71.32917 | 30653 ft | 429 kts | 340° |
| 2026-04-21 14:17 | -32.34886 | -71.33630 | 30940 ft | 431 kts | 340° |
| 2026-04-21 14:18 | -32.31945 | -71.34340 | 31227 ft | 431 kts | 340° |
| 2026-04-21 14:18 | -32.29039 | -71.35038 | 31633 ft | 429 kts | 340° |
| 2026-04-21 14:18 | -32.26115 | -71.35736 | 32058 ft | 427 kts | 340° |
| 2026-04-21 14:18 | -32.23211 | -71.36429 | 32470 ft | 425 kts | 339° |
| 2026-04-21 14:19 | -32.20314 | -71.37125 | 32848 ft | 424 kts | 339° |
| 2026-04-21 14:19 | -32.17434 | -71.37819 | 33245 ft | 422 kts | 339° |
| 2026-04-21 14:19 | -32.14565 | -71.38508 | 33665 ft | 420 kts | 339° |
| 2026-04-21 14:19 | -32.11706 | -71.39195 | 34060 ft | 419 kts | 339° |
| 2026-04-21 14:20 | -32.08858 | -71.39880 | 34151 ft | 415 kts | 338° |
| 2026-04-21 14:20 | -32.03244 | -71.41231 | 34161 ft | 409 kts | 338° |
| 2026-04-21 14:21 | -31.97702 | -71.42568 | 34162 ft | 408 kts | 338° |
| 2026-04-21 14:21 | -31.92130 | -71.43902 | 34162 ft | 408 kts | 338° |
| 2026-04-21 14:22 | -31.86550 | -71.45235 | 34168 ft | 408 kts | 338° |
| 2026-04-21 14:22 | -31.80974 | -71.46568 | 34167 ft | 408 kts | 338° |
| 2026-04-21 14:23 | -31.75437 | -71.47892 | 34169 ft | 408 kts | 338° |
| 2026-04-21 14:23 | -31.69725 | -71.48660 | 34157 ft | 423 kts | 349° |
| 2026-04-21 14:24 | -31.63825 | -71.48595 | 34162 ft | 424 kts | 349° |
| 2026-04-21 14:24 | -31.57923 | -71.48537 | 34167 ft | 424 kts | 349° |
| 2026-04-21 14:25 | -31.52025 | -71.48480 | 34167 ft | 423 kts | 349° |
| 2026-04-21 14:25 | -31.46137 | -71.48425 | 34171 ft | 423 kts | 349° |
| 2026-04-21 14:25 | -31.43192 | -71.48395 | 33994 ft | 423 kts | 349° |
| 2026-04-21 14:26 | -31.40257 | -71.48367 | 33571 ft | 422 kts | 349° |
| 2026-04-21 14:26 | -31.37301 | -71.48348 | 32622 ft | 427 kts | 350° |
| 2026-04-21 14:26 | -31.34310 | -71.48333 | 31746 ft | 430 kts | 351° |
| 2026-04-21 14:26 | -31.31347 | -71.48309 | 31249 ft | 423 kts | 351° |
| 2026-04-21 14:27 | -31.28413 | -71.48277 | 30655 ft | 419 kts | 351° |
| 2026-04-21 14:27 | -31.25506 | -71.48243 | 30043 ft | 417 kts | 352° |
| 2026-04-21 14:27 | -31.22612 | -71.48210 | 29443 ft | 413 kts | 352° |
| 2026-04-21 14:27 | -31.19758 | -71.48180 | 28884 ft | 408 kts | 352° |
| 2026-04-21 14:28 | -31.16938 | -71.48154 | 28325 ft | 403 kts | 352° |
| 2026-04-21 14:28 | -31.14143 | -71.48129 | 27773 ft | 400 kts | 352° |
| 2026-04-21 14:28 | -31.11372 | -71.48104 | 27234 ft | 397 kts | 352° |
| 2026-04-21 14:28 | -31.08657 | -71.48081 | 26699 ft | 394 kts | 352° |
| 2026-04-21 14:29 | -31.05926 | -71.48057 | 26171 ft | 391 kts | 352° |
| 2026-04-21 14:29 | -31.03212 | -71.48036 | 25654 ft | 389 kts | 352° |
| 2026-04-21 14:29 | -31.00516 | -71.48014 | 25153 ft | 386 kts | 352° |
| 2026-04-21 14:29 | -30.97837 | -71.47989 | 24648 ft | 383 kts | 352° |
| 2026-04-21 14:30 | -30.95182 | -71.47963 | 24180 ft | 380 kts | 352° |
| 2026-04-21 14:30 | -30.92546 | -71.47937 | 23704 ft | 378 kts | 352° |
| 2026-04-21 14:30 | -30.89928 | -71.47912 | 23201 ft | 375 kts | 352° |
| 2026-04-21 14:30 | -30.87333 | -71.47887 | 22754 ft | 370 kts | 353° |
| 2026-04-21 14:31 | -30.84776 | -71.47862 | 22309 ft | 366 kts | 353° |
| 2026-04-21 14:31 | -30.82246 | -71.47839 | 21866 ft | 361 kts | 353° |
| 2026-04-21 14:31 | -30.79750 | -71.47815 | 21436 ft | 357 kts | 353° |
| 2026-04-21 14:31 | -30.77276 | -71.47794 | 20992 ft | 354 kts | 353° |
| 2026-04-21 14:32 | -30.74822 | -71.47775 | 20556 ft | 352 kts | 353° |
| 2026-04-21 14:32 | -30.72370 | -71.47757 | 20097 ft | 351 kts | 354° |
| 2026-04-21 14:32 | -30.69931 | -71.47737 | 19646 ft | 350 kts | 354° |
| 2026-04-21 14:32 | -30.67491 | -71.47719 | 19182 ft | 350 kts | 354° |
| 2026-04-21 14:33 | -30.65052 | -71.47698 | 18718 ft | 350 kts | 354° |
| 2026-04-21 14:33 | -30.62647 | -71.47676 | 18213 ft | 350 kts | 355° |
| 2026-04-21 14:33 | -30.60215 | -71.47651 | 17739 ft | 348 kts | 355° |
| 2026-04-21 14:33 | -30.57796 | -71.47628 | 17284 ft | 346 kts | 355° |
| 2026-04-21 14:34 | -30.55387 | -71.47464 | 16820 ft | 349 kts | 5° |
| 2026-04-21 14:34 | -30.53045 | -71.46655 | 16344 ft | 355 kts | 20° |
| 2026-04-21 14:34 | -30.50919 | -71.45159 | 15839 ft | 362 kts | 35° |
| 2026-04-21 14:34 | -30.49128 | -71.43088 | 15324 ft | 366 kts | 44° |
| 2026-04-21 14:35 | -30.47411 | -71.40897 | 14814 ft | 366 kts | 44° |
| 2026-04-21 14:35 | -30.45690 | -71.38720 | 14295 ft | 367 kts | 44° |
| 2026-04-21 14:35 | -30.43962 | -71.36546 | 13750 ft | 366 kts | 44° |
| 2026-04-21 14:35 | -30.42236 | -71.34379 | 13294 ft | 362 kts | 44° |
| 2026-04-21 14:36 | -30.40531 | -71.32238 | 12811 ft | 359 kts | 44° |
| 2026-04-21 14:36 | -30.38860 | -71.30133 | 12298 ft | 352 kts | 44° |
| 2026-04-21 14:36 | -30.37212 | -71.28056 | 11640 ft | 348 kts | 44° |
| 2026-04-21 14:36 | -30.35599 | -71.26022 | 11113 ft | 339 kts | 44° |
| 2026-04-21 14:37 | -30.34004 | -71.24016 | 10569 ft | 339 kts | 44° |
| 2026-04-21 14:37 | -30.32424 | -71.22029 | 10323 ft | 329 kts | 44° |
| 2026-04-21 14:37 | -30.30912 | -71.20125 | 10191 ft | 313 kts | 44° |
| 2026-04-21 14:37 | -30.29491 | -71.18335 | 10045 ft | 292 kts | 44° |
| 2026-04-21 14:38 | -30.28141 | -71.16638 | 9597 ft | 282 kts | 44° |
| 2026-04-21 14:38 | -30.26840 | -71.15008 | 9405 ft | 278 kts | 43° |
| 2026-04-21 14:38 | -30.25486 | -71.13445 | 9059 ft | 273 kts | 35° |
| 2026-04-21 14:38 | -30.23875 | -71.12326 | 8682 ft | 268 kts | 20° |
| 2026-04-21 14:39 | -30.22091 | -71.11743 | 8307 ft | 265 kts | 6° |
| 2026-04-21 14:39 | -30.20254 | -71.11567 | 7929 ft | 265 kts | 3° |
| 2026-04-21 14:39 | -30.18403 | -71.11410 | 7550 ft | 266 kts | 3° |
| 2026-04-21 14:39 | -30.16588 | -71.11254 | 7177 ft | 257 kts | 3° |
| 2026-04-21 14:40 | -30.14846 | -71.11106 | 6833 ft | 245 kts | 3° |
| 2026-04-21 14:40 | -30.13172 | -71.10962 | 6500 ft | 236 kts | 4° |
| 2026-04-21 14:40 | -30.11607 | -71.10519 | 6159 ft | 231 kts | 22° |
| 2026-04-21 14:40 | -30.10219 | -71.09608 | 5838 ft | 227 kts | 29° |
| 2026-04-21 14:41 | -30.08879 | -71.08669 | 5523 ft | 224 kts | 30° |
| 2026-04-21 14:41 | -30.07564 | -71.07750 | 5220 ft | 218 kts | 30° |
| 2026-04-21 14:41 | -30.06273 | -71.06850 | 4917 ft | 215 kts | 29° |
| 2026-04-21 14:41 | -30.05000 | -71.05966 | 4613 ft | 212 kts | 30° |
| 2026-04-21 14:42 | -30.03728 | -71.05139 | 4317 ft | 209 kts | 22° |
| 2026-04-21 14:42 | -30.02810 | -71.04784 | 4128 ft | 203 kts | 12° |
| 2026-04-21 14:42 | -30.01435 | -71.04619 | 3874 ft | 195 kts | 358° |
| 2026-04-21 14:42 | -30.00107 | -71.04854 | 3595 ft | 194 kts | 344° |
| 2026-04-21 14:43 | -29.98865 | -71.05460 | 3308 ft | 193 kts | 330° |
| 2026-04-21 14:43 | -29.97804 | -71.06383 | 3027 ft | 191 kts | 316° |
| 2026-04-21 14:43 | -29.96978 | -71.07567 | 2769 ft | 189 kts | 301° |
| 2026-04-21 14:43 | -29.96377 | -71.08913 | 2495 ft | 187 kts | 296° |
| 2026-04-21 14:44 | -29.95802 | -71.10252 | 2318 ft | 188 kts | 296° |
| 2026-04-21 14:44 | -29.95188 | -71.11684 | 2934 ft | 204 kts | 296° |
| 2026-04-21 14:44 | -29.94549 | -71.13173 | 3491 ft | 212 kts | 297° |
| 2026-04-21 14:44 | -29.93875 | -71.14743 | 4158 ft | 221 kts | 298° |
| 2026-04-21 14:45 | -29.93180 | -71.16357 | 4443 ft | 225 kts | 298° |
| 2026-04-21 14:45 | -29.92491 | -71.17961 | 4499 ft | 222 kts | 298° |
| 2026-04-21 14:45 | -29.91805 | -71.19559 | 4510 ft | 222 kts | 297° |
| 2026-04-21 14:45 | -29.91123 | -71.21151 | 4511 ft | 222 kts | 298° |
| 2026-04-21 14:46 | -29.90440 | -71.22746 | 4507 ft | 222 kts | 298° |
| 2026-04-21 14:46 | -29.89758 | -71.24338 | 4505 ft | 221 kts | 298° |
| 2026-04-21 14:46 | -29.89074 | -71.25929 | 4506 ft | 222 kts | 297° |
| 2026-04-21 14:46 | -29.88291 | -71.27425 | 4512 ft | 221 kts | 312° |
| 2026-04-21 14:47 | -29.87145 | -71.28578 | 4505 ft | 219 kts | 329° |
| 2026-04-21 14:47 | -29.85851 | -71.29503 | 4509 ft | 219 kts | 329° |
| 2026-04-21 14:47 | -29.84555 | -71.30438 | 4515 ft | 219 kts | 328° |
| 2026-04-21 14:47 | -29.83260 | -71.31373 | 4515 ft | 220 kts | 329° |
| 2026-04-21 14:48 | -29.81965 | -71.32306 | 4516 ft | 219 kts | 329° |
| 2026-04-21 14:48 | -29.80674 | -71.33241 | 4518 ft | 219 kts | 328° |
| 2026-04-21 14:48 | -29.79388 | -71.34195 | 4520 ft | 220 kts | 323° |
| 2026-04-21 14:48 | -29.78421 | -71.35541 | 4524 ft | 221 kts | 295° |
| 2026-04-21 14:49 | -29.78145 | -71.37274 | 4525 ft | 224 kts | 265° |
| 2026-04-21 14:49 | -29.78674 | -71.38959 | 4521 ft | 228 kts | 234° |
| 2026-04-21 14:49 | -29.79884 | -71.40122 | 4525 ft | 230 kts | 203° |
| 2026-04-21 14:49 | -29.81461 | -71.40391 | 4727 ft | 234 kts | 169° |
| 2026-04-21 14:50 | -29.83015 | -71.39677 | 5264 ft | 254 kts | 144° |
| 2026-04-21 14:50 | -29.84566 | -71.38523 | 5726 ft | 278 kts | 147° |
| 2026-04-21 14:50 | -29.86275 | -71.37369 | 6472 ft | 289 kts | 149° |
| 2026-04-21 14:50 | -29.88055 | -71.36212 | 7169 ft | 298 kts | 149° |
| 2026-04-21 14:51 | -29.89871 | -71.35036 | 7410 ft | 300 kts | 149° |
| 2026-04-21 14:51 | -29.91690 | -71.33850 | 7562 ft | 300 kts | 149° |
| 2026-04-21 14:51 | -29.93497 | -71.32662 | 8011 ft | 299 kts | 149° |
| 2026-04-21 14:51 | -29.95318 | -71.31452 | 8657 ft | 304 kts | 148° |
| 2026-04-21 14:52 | -29.97159 | -71.30222 | 9314 ft | 308 kts | 148° |
| 2026-04-21 14:52 | -29.99020 | -71.28973 | 9982 ft | 311 kts | 148° |
| 2026-04-21 14:52 | -30.00910 | -71.27702 | 10602 ft | 319 kts | 148° |
| 2026-04-21 14:52 | -30.02879 | -71.26377 | 11012 ft | 341 kts | 149° |
| 2026-04-21 14:53 | -30.05024 | -71.24934 | 11123 ft | 371 kts | 149° |
| 2026-04-21 14:53 | -30.07341 | -71.23376 | 11144 ft | 400 kts | 149° |
| 2026-04-21 14:53 | -30.09813 | -71.21714 | 11147 ft | 419 kts | 149° |
| 2026-04-21 14:53 | -30.12345 | -71.20011 | 11143 ft | 423 kts | 149° |
| 2026-04-21 14:54 | -30.14873 | -71.18274 | 10739 ft | 420 kts | 145° |
| 2026-04-21 14:54 | -30.16914 | -71.15958 | 9685 ft | 405 kts | 121° |
| 2026-04-21 14:54 | -30.17947 | -71.13039 | 8609 ft | 386 kts | 96° |
| 2026-04-21 14:54 | -30.17848 | -71.10043 | 7619 ft | 366 kts | 71° |
| 2026-04-21 14:55 | -30.16693 | -71.07536 | 6709 ft | 347 kts | 46° |
| 2026-04-21 14:55 | -30.14770 | -71.05991 | 5823 ft | 333 kts | 19° |
| 2026-04-21 14:55 | -30.12564 | -71.05472 | 5159 ft | 319 kts | 7° |
| 2026-04-21 14:55 | -30.10414 | -71.05124 | 4990 ft | 299 kts | 7° |
| 2026-04-21 14:56 | -30.08474 | -71.04812 | 5002 ft | 271 kts | 7° |
| 2026-04-21 14:56 | -30.06618 | -71.04513 | 4523 ft | 260 kts | 7° |
| 2026-04-21 14:56 | -30.04899 | -71.04239 | 4187 ft | 238 kts | 5° |
| 2026-04-21 14:56 | -30.03320 | -71.04289 | 3929 ft | 221 kts | 354° |
| 2026-04-21 14:57 | -30.01839 | -71.04484 | 3705 ft | 213 kts | 352° |
| 2026-04-21 14:57 | -30.00384 | -71.04787 | 3459 ft | 206 kts | 344° |
| 2026-04-21 14:57 | -29.99104 | -71.05341 | 3209 ft | 192 kts | 333° |
| 2026-04-21 14:57 | -29.98016 | -71.06181 | 2944 ft | 181 kts | 319° |
| 2026-04-21 14:58 | -29.97199 | -71.07210 | 2724 ft | 173 kts | 305° |
| 2026-04-21 14:58 | -29.96614 | -71.08387 | 2499 ft | 166 kts | 296° |
| 2026-04-21 14:58 | -29.96120 | -71.09545 | 2300 ft | 157 kts | 296° |
| 2026-04-21 14:58 | -29.95639 | -71.10666 | 2080 ft | 152 kts | 296° |
| 2026-04-21 14:59 | -29.95173 | -71.11748 | 1881 ft | 149 kts | 297° |
| 2026-04-21 14:59 | -29.94712 | -71.12816 | 1689 ft | 148 kts | 297° |
| 2026-04-21 14:59 | -29.94254 | -71.13880 | 1494 ft | 148 kts | 296° |
| 2026-04-21 14:59 | -29.93797 | -71.14940 | 1303 ft | 147 kts | 297° |
| 2026-04-21 15:00 | -29.93345 | -71.15989 | 1112 ft | 145 kts | 297° |
| 2026-04-21 15:00 | -29.92894 | -71.17026 | 930 ft | 144 kts | 297° |
| 2026-04-21 15:00 | -29.92457 | -71.18056 | 699 ft | 142 kts | 295° |
| 2026-04-21 15:00 | -29.92026 | -71.19069 | 537 ft | 140 kts | 296° |
| 2026-04-21 15:01 | -29.91616 | -71.20016 | 469 ft | 105 kts | 296° |
| 2026-04-21 15:01 | -29.91416 | -71.20483 | 478 ft | 40 kts | 296° |
| 2026-04-21 15:01 | -29.91322 | -71.20698 | 472 ft | 16 kts | 297° |
| 2026-04-21 15:01 | -29.91295 | -71.20797 | 480 ft | 9 kts | 274° |
| 2026-04-21 15:02 | -29.91284 | -71.20844 | 474 ft | 4 kts | 343° |
| 2026-04-21 15:02 | -29.91271 | -71.20825 | 478 ft | 4 kts | 72° |
| 2026-04-21 15:02 | -29.91286 | -71.20784 | 480 ft | 6 kts | 127° |
| 2026-04-21 15:02 | -29.91305 | -71.20742 | 478 ft | 6 kts | 116° |
| 2026-04-21 15:03 | -29.91320 | -71.20705 | 475 ft | 5 kts | 116° |
| 2026-04-21 15:03 | -29.91346 | -71.20645 | 482 ft | 11 kts | 116° |
| 2026-04-21 15:03 | -29.91387 | -71.20551 | 481 ft | 15 kts | 116° |
| 2026-04-21 15:03 | -29.91433 | -71.20443 | 477 ft | 15 kts | 116° |
| 2026-04-21 15:04 | -29.91475 | -71.20342 | 480 ft | 13 kts | 116° |
| 2026-04-21 15:04 | -29.91536 | -71.20278 | 473 ft | 12 kts | 174° |
| 2026-04-21 15:04 | -29.91609 | -71.20308 | 478 ft | 11 kts | 205° |
| 2026-04-21 15:04 | -29.91667 | -71.20340 | 477 ft | 0 kts | 205° |